Time;durP1;ratioP1;P1;durP2;ratioP2;P2;SDS_P1;SDS_P2;PMS_P1;PMS_P2;Temp;Humidity;BMP_temperature;BMP_pressure;BME280_temperature;BME280_humidity;BME280_pressure;Samples;Min_cycle;Max_cycle;Signal;HPM_P1;HPM_P2
2022/10/18 00:01:40;;;;;;;8.93;5.35;;;;;;;;;;5071775;28;20045;-48
2022/10/18 00:04:10;;;;;;;9.57;5.50;;;;;;;;;;5071813;28;20056;-49
2022/10/18 00:06:52;;;;;;;10.88;6.00;;;;;;;;;;5071953;28;20048;-52
2022/10/18 00:09:22;;;;;;;9.60;5.57;;;;;;;;;;5069246;28;20529;-48
2022/10/18 00:11:52;;;;;;;9.93;5.35;;;;;;;;;;5072151;28;20807;-51
2022/10/18 00:14:22;;;;;;;7.25;4.78;;;;;;;;;;5071532;28;20370;-50
2022/10/18 00:16:52;;;;;;;7.38;4.78;;;;;;;;;;5062422;28;20067;-52
2022/10/18 00:19:19;;;;;;;7.30;4.53;;;;;;;;;;5075516;28;20060;-48
2022/10/18 00:21:51;;;;;;;12.75;5.60;;;;;;;;;;5073848;28;20424;-47
2022/10/18 00:24:17;;;;;;;7.57;4.22;;;;;;;;;;5074654;28;20075;-48
2022/10/18 00:26:47;;;;;;;8.35;4.43;;;;;;;;;;5075466;28;20059;-49
2022/10/18 00:29:24;;;;;;;8.60;3.78;;;;;;;;;;5073653;28;20457;-48
2022/10/18 00:31:52;;;;;;;5.97;3.92;;;;;;;;;;5062976;28;20048;-49
2022/10/18 00:34:19;;;;;;;6.50;3.67;;;;;;;;;;5068827;28;20063;-49
2022/10/18 00:36:47;;;;;;;4.60;3.15;;;;;;;;;;5074953;28;20052;-50
2022/10/18 00:39:22;;;;;;;7.45;3.42;;;;;;;;;;5074363;28;20067;-49
2022/10/18 00:41:52;;;;;;;5.68;2.90;;;;;;;;;;5067318;28;20048;-51
2022/10/18 00:44:39;;;;;;;4.63;3.25;;;;;;;;;;5080511;28;20118;-49
2022/10/18 00:47:17;;;;;;;3.38;2.33;;;;;;;;;;5031168;28;20045;-49
2022/10/18 00:49:55;;;;;;;6.32;2.30;;;;;;;;;;5059826;28;20053;-51
2022/10/18 00:52:24;;;;;;;4.13;2.25;;;;;;;;;;5066467;28;20049;-48
2022/10/18 00:55:04;;;;;;;4.47;2.30;;;;;;;;;;5068166;28;20063;-49
2022/10/18 00:57:34;;;;;;;3.80;2.20;;;;;;;;;;5074689;28;20063;-49
2022/10/18 01:00:06;;;;;;;2.78;1.92;;;;;;;;;;5069744;28;20083;-50
2022/10/18 01:02:34;;;;;;;4.60;1.80;;;;;;;;;;5055356;28;20053;-51
2022/10/18 01:05:02;;;;;;;3.38;1.67;;;;;;;;;;5070524;28;20048;-48
2022/10/18 01:07:57;;;;;;;4.03;1.85;;;;;;;;;;5066398;28;20546;-50
2022/10/18 01:10:43;;;;;;;3.80;2.13;;;;;;;;;;5071523;28;20049;-49
2022/10/18 01:13:21;;;;;;;4.32;2.13;;;;;;;;;;5054808;28;20052;-50
2022/10/18 01:15:51;;;;;;;2.42;1.65;;;;;;;;;;5059038;28;20127;-48
2022/10/18 01:18:29;;;;;;;3.17;1.90;;;;;;;;;;5070880;28;20049;-52
2022/10/18 01:21:04;;;;;;;3.10;1.90;;;;;;;;;;5066552;28;20144;-50
2022/10/18 01:23:41;;;;;;;2.75;1.55;;;;;;;;;;5069599;28;20053;-48
2022/10/18 01:26:26;;;;;;;3.55;1.50;;;;;;;;;;5074390;28;20052;-48
2022/10/18 01:28:57;;;;;;;2.33;1.50;;;;;;;;;;5081426;28;20501;-48
2022/10/18 01:31:42;;;;;;;1.65;1.15;;;;;;;;;;5094497;28;20044;-48
2022/10/18 01:34:12;;;;;;;5.05;1.30;;;;;;;;;;5075908;28;20428;-48
2022/10/18 01:36:42;;;;;;;2.35;1.50;;;;;;;;;;5071278;28;20050;-47
2022/10/18 01:39:16;;;;;;;2.60;1.45;;;;;;;;;;5094608;28;20080;-49
2022/10/18 01:41:56;;;;;;;2.50;1.50;;;;;;;;;;5073130;28;20064;-51
2022/10/18 01:44:26;;;;;;;3.25;1.48;;;;;;;;;;5071880;28;20049;-51
2022/10/18 01:47:09;;;;;;;2.28;1.25;;;;;;;;;;5093294;28;20058;-47
2022/10/18 01:49:39;;;;;;;2.60;1.20;;;;;;;;;;5090287;28;20056;-52
2022/10/18 01:52:05;;;;;;;2.42;1.50;;;;;;;;;;5079654;28;20048;-49
2022/10/18 01:54:37;;;;;;;4.57;1.60;;;;;;;;;;5088395;28;20375;-49
2022/10/18 01:57:10;;;;;;;2.92;1.60;;;;;;;;;;5063570;28;20052;-52
2022/10/18 01:59:51;;;;;;;2.38;1.17;;;;;;;;;;5078787;28;20040;-48
2022/10/18 02:02:30;;;;;;;3.28;1.25;;;;;;;;;;5069388;28;20044;-48
2022/10/18 02:05:06;;;;;;;1.85;1.10;;;;;;;;;;5078628;28;20060;-51
2022/10/18 02:07:37;;;;;;;2.35;1.10;;;;;;;;;;5081255;28;20079;-49
2022/10/18 02:10:08;;;;;;;3.58;1.38;;;;;;;;;;5087590;28;20070;-48
2022/10/18 02:12:38;;;;;;;2.05;1.17;;;;;;;;;;5061576;28;20094;-48
2022/10/18 02:15:15;;;;;;;2.85;1.05;;;;;;;;;;5060498;28;20064;-49
2022/10/18 02:17:58;;;;;;;2.50;1.23;;;;;;;;;;5054846;28;20049;-48
2022/10/18 02:20:37;;;;;;;2.30;1.38;;;;;;;;;;5056385;28;20082;-49
2022/10/18 02:23:07;;;;;;;2.05;1.30;;;;;;;;;;5053126;28;20402;-49
2022/10/18 02:25:38;;;;;;;1.92;1.25;;;;;;;;;;5067412;28;20449;-48
2022/10/18 02:28:05;;;;;;;2.50;1.00;;;;;;;;;;5063465;28;20069;-52
2022/10/18 02:30:38;;;;;;;2.75;1.38;;;;;;;;;;5054480;28;20053;-49
2022/10/18 02:33:11;;;;;;;2.47;1.42;;;;;;;;;;5060178;28;20053;-49
2022/10/18 02:35:47;;;;;;;2.05;1.35;;;;;;;;;;5060672;28;20048;-52
2022/10/18 02:38:24;;;;;;;2.10;1.02;;;;;;;;;;5064219;28;20335;-52
2022/10/18 02:40:52;;;;;;;1.70;1.30;;;;;;;;;;5062921;28;20044;-48
2022/10/18 02:43:22;;;;;;;1.85;1.10;;;;;;;;;;5072753;28;20052;-51
2022/10/18 02:45:48;;;;;;;3.53;1.30;;;;;;;;;;5072483;28;20084;-48
2022/10/18 02:48:23;;;;;;;1.73;0.95;;;;;;;;;;5065388;28;20048;-50
2022/10/18 02:50:50;;;;;;;1.80;0.95;;;;;;;;;;5061629;28;20049;-51
2022/10/18 02:53:17;;;;;;;1.65;1.00;;;;;;;;;;5062576;28;20450;-48
2022/10/18 02:55:45;;;;;;;2.30;1.13;;;;;;;;;;5062318;28;20060;-50
2022/10/18 03:00:56;;;;;;;1.70;0.90;;;;;;;;;;5061864;28;20057;-49
2022/10/18 03:03:23;;;;;;;2.65;1.05;;;;;;;;;;5066648;28;20418;-48
2022/10/18 03:05:51;;;;;;;1.10;0.70;;;;;;;;;;5061157;28;20059;-49
2022/10/18 03:08:19;;;;;;;1.15;0.75;;;;;;;;;;5069788;28;20385;-48
2022/10/18 03:10:47;;;;;;;3.13;1.00;;;;;;;;;;5070183;28;20485;-50
2022/10/18 03:13:17;;;;;;;2.55;0.98;;;;;;;;;;5072631;28;20058;-48
2022/10/18 03:15:46;;;;;;;1.52;0.82;;;;;;;;;;5072033;28;20056;-48
2022/10/18 03:18:15;;;;;;;1.85;1.00;;;;;;;;;;5060432;28;20064;-49
2022/10/18 03:20:47;;;;;;;2.67;0.95;;;;;;;;;;5053790;28;20065;-49
2022/10/18 03:23:15;;;;;;;1.27;0.88;;;;;;;;;;5071335;28;20060;-51
2022/10/18 03:25:41;;;;;;;1.42;0.90;;;;;;;;;;5056032;28;20053;-48
2022/10/18 03:28:09;;;;;;;3.75;1.00;;;;;;;;;;5066773;28;20064;-48
2022/10/18 03:30:37;;;;;;;1.40;0.80;;;;;;;;;;5066683;28;20044;-50
2022/10/18 03:33:07;;;;;;;1.30;0.90;;;;;;;;;;5065929;28;20131;-52
2022/10/18 03:35:37;;;;;;;1.98;0.80;;;;;;;;;;5054601;28;20057;-51
2022/10/18 03:38:07;;;;;;;1.10;0.80;;;;;;;;;;5055289;28;20700;-48
2022/10/18 03:40:37;;;;;;;1.90;0.98;;;;;;;;;;5060884;28;20406;-48
2022/10/18 03:43:07;;;;;;;1.02;0.73;;;;;;;;;;5066890;28;20041;-50
2022/10/18 03:45:37;;;;;;;1.55;0.70;;;;;;;;;;5056996;28;20374;-48
2022/10/18 03:48:05;;;;;;;1.67;0.90;;;;;;;;;;5061696;28;20498;-50
2022/10/18 03:50:33;;;;;;;1.83;0.85;;;;;;;;;;5064365;28;20454;-49
2022/10/18 03:53:00;;;;;;;1.63;0.80;;;;;;;;;;5058424;28;20055;-48
2022/10/18 03:55:34;;;;;;;1.77;0.80;;;;;;;;;;5073631;28;20064;-48
2022/10/18 03:58:04;;;;;;;3.40;0.88;;;;;;;;;;5067765;28;20385;-48
2022/10/18 04:00:31;;;;;;;1.67;0.80;;;;;;;;;;5071892;28;20127;-50
2022/10/18 04:03:00;;;;;;;2.28;0.90;;;;;;;;;;5060213;28;20041;-50
2022/10/18 04:05:30;;;;;;;1.30;0.90;;;;;;;;;;5056128;28;20049;-52
2022/10/18 04:07:58;;;;;;;1.98;0.70;;;;;;;;;;5060561;28;20080;-48
2022/10/18 04:10:24;;;;;;;3.03;1.02;;;;;;;;;;5068778;28;20695;-52
2022/10/18 04:13:01;;;;;;;2.63;1.00;;;;;;;;;;5055397;28;20343;-49
2022/10/18 04:15:31;;;;;;;1.58;0.90;;;;;;;;;;5057097;28;20049;-49
2022/10/18 04:17:58;;;;;;;3.70;1.30;;;;;;;;;;5068551;28;20056;-48
2022/10/18 04:20:28;;;;;;;1.17;0.65;;;;;;;;;;5055736;28;20492;-52
2022/10/18 04:22:59;;;;;;;2.92;0.68;;;;;;;;;;5055076;28;20063;-47
2022/10/18 04:25:29;;;;;;;1.38;0.77;;;;;;;;;;5056616;28;20053;-47
2022/10/18 04:28:03;;;;;;;2.10;1.30;;;;;;;;;;5064236;28;20055;-49
2022/10/18 04:30:31;;;;;;;1.20;0.68;;;;;;;;;;5067037;28;20056;-48
2022/10/18 04:32:57;;;;;;;1.60;0.85;;;;;;;;;;5055820;28;20045;-48
2022/10/18 04:35:27;;;;;;;1.65;0.70;;;;;;;;;;5063302;28;20060;-52
2022/10/18 04:37:57;;;;;;;2.63;1.23;;;;;;;;;;5058547;28;20465;-49
2022/10/18 04:40:26;;;;;;;2.28;0.80;;;;;;;;;;5064698;28;20057;-49
2022/10/18 04:42:56;;;;;;;2.50;1.02;;;;;;;;;;5055163;28;20041;-52
2022/10/18 04:45:29;;;;;;;1.75;1.00;;;;;;;;;;5055155;28;20056;-50
2022/10/18 04:47:56;;;;;;;1.70;0.93;;;;;;;;;;5057407;28;20052;-48
2022/10/18 04:50:26;;;;;;;2.42;0.88;;;;;;;;;;5064292;28;20061;-49
2022/10/18 04:52:56;;;;;;;2.38;0.90;;;;;;;;;;5068482;28;20390;-50
2022/10/18 04:55:26;;;;;;;2.08;1.02;;;;;;;;;;5062928;28;20400;-50
2022/10/18 04:57:56;;;;;;;3.53;1.15;;;;;;;;;;5063337;28;20049;-48
2022/10/18 05:00:37;;;;;;;1.30;0.90;;;;;;;;;;5061614;28;20084;-51
2022/10/18 05:03:04;;;;;;;2.78;1.17;;;;;;;;;;5054192;28;20061;-49
2022/10/18 05:05:32;;;;;;;2.50;1.27;;;;;;;;;;5054708;28;20049;-48
2022/10/18 05:08:02;;;;;;;9.80;2.38;;;;;;;;;;5058648;28;20044;-50
2022/10/18 05:10:29;;;;;;;5.35;1.95;;;;;;;;;;5071761;28;20048;-52
2022/10/18 05:12:59;;;;;;;7.20;1.95;;;;;;;;;;5060670;28;20045;-49
2022/10/18 05:15:37;;;;;;;6.30;1.80;;;;;;;;;;5069452;28;20048;-49
2022/10/18 05:18:06;;;;;;;3.55;1.27;;;;;;;;;;5060770;28;20072;-46
2022/10/18 05:20:34;;;;;;;3.70;1.80;;;;;;;;;;5054448;28;20045;-49
2022/10/18 05:23:04;;;;;;;6.57;2.08;;;;;;;;;;5065996;28;20492;-49
2022/10/18 05:25:34;;;;;;;3.80;1.73;;;;;;;;;;5054071;28;20460;-49
2022/10/18 05:28:04;;;;;;;4.05;1.92;;;;;;;;;;5066827;28;20453;-48
2022/10/18 05:30:37;;;;;;;2.80;1.25;;;;;;;;;;5054559;28;20049;-49
2022/10/18 05:33:07;;;;;;;8.10;2.63;;;;;;;;;;5059358;28;20041;-49
2022/10/18 05:35:37;;;;;;;8.20;3.58;;;;;;;;;;5066671;28;20139;-51
2022/10/18 05:38:08;;;;;;;7.30;3.85;;;;;;;;;;5072136;28;20410;-47
2022/10/18 05:40:41;;;;;;;7.82;3.40;;;;;;;;;;5073707;28;20048;-49
2022/10/18 05:43:11;;;;;;;7.68;3.13;;;;;;;;;;5061304;28;20050;-51
2022/10/18 05:45:46;;;;;;;8.30;2.80;;;;;;;;;;5072935;28;20056;-48
2022/10/18 05:48:13;;;;;;;4.63;2.30;;;;;;;;;;5073033;28;20052;-48
2022/10/18 05:50:39;;;;;;;5.30;2.63;;;;;;;;;;5068594;28;20067;-48
2022/10/18 05:53:08;;;;;;;6.20;2.00;;;;;;;;;;5070908;28;20441;-48
2022/10/18 05:55:35;;;;;;;5.07;2.55;;;;;;;;;;5082910;28;20593;-50
2022/10/18 05:58:03;;;;;;;5.70;1.98;;;;;;;;;;5062679;28;20397;-48
2022/10/18 06:00:31;;;;;;;4.75;2.13;;;;;;;;;;5068769;28;20055;-47
2022/10/18 06:03:14;;;;;;;4.97;2.25;;;;;;;;;;5065078;28;20045;-48
2022/10/18 06:05:44;;;;;;;2.75;1.80;;;;;;;;;;5061066;28;20477;-47
2022/10/18 06:08:14;;;;;;;4.63;1.92;;;;;;;;;;5069400;28;20426;-48
2022/10/18 06:10:44;;;;;;;3.45;1.42;;;;;;;;;;5059086;28;20065;-46
2022/10/18 06:13:14;;;;;;;4.22;2.00;;;;;;;;;;5057790;28;20049;-50
2022/10/18 06:15:44;;;;;;;3.72;2.00;;;;;;;;;;5062498;28;20139;-48
2022/10/18 06:18:19;;;;;;;2.40;1.40;;;;;;;;;;5068420;28;20128;-49
2022/10/18 06:20:50;;;;;;;6.68;2.92;;;;;;;;;;5079447;28;20045;-50
2022/10/18 06:23:16;;;;;;;8.30;2.83;;;;;;;;;;5072093;28;20119;-51
2022/10/18 06:25:46;;;;;;;7.32;2.70;;;;;;;;;;5059540;28;20060;-48
2022/10/18 06:28:16;;;;;;;5.95;2.67;;;;;;;;;;5067073;28;20053;-48
2022/10/18 06:30:46;;;;;;;5.63;2.20;;;;;;;;;;5055826;28;20529;-49
2022/10/18 06:33:29;;;;;;;4.55;2.30;;;;;;;;;;5055668;28;20131;-49
2022/10/18 06:35:58;;;;;;;8.40;2.28;;;;;;;;;;5068384;28;20106;-49
2022/10/18 06:38:25;;;;;;;5.45;2.40;;;;;;;;;;5070988;28;20105;-48
2022/10/18 06:40:54;;;;;;;8.68;3.30;;;;;;;;;;5066519;28;20385;-49
2022/10/18 06:43:21;;;;;;;5.55;2.03;;;;;;;;;;5079729;28;20048;-49
2022/10/18 06:45:50;;;;;;;5.97;2.47;;;;;;;;;;5068578;28;20048;-50
2022/10/18 06:48:21;;;;;;;6.75;2.92;;;;;;;;;;5067201;28;20044;-50
2022/10/18 06:50:53;;;;;;;8.90;3.20;;;;;;;;;;5058374;28;20053;-48
2022/10/18 06:53:24;;;;;;;9.77;2.90;;;;;;;;;;5062760;28;20041;-47
2022/10/18 06:55:50;;;;;;;13.82;3.22;;;;;;;;;;5065178;28;20053;-47
2022/10/18 06:58:19;;;;;;;11.25;3.03;;;;;;;;;;5065817;28;20458;-51
2022/10/18 07:00:48;;;;;;;9.38;3.13;;;;;;;;;;5072248;28;20045;-48
2022/10/18 07:03:14;;;;;;;7.70;2.20;;;;;;;;;;5075575;28;20079;-49
2022/10/18 07:05:47;;;;;;;11.70;2.28;;;;;;;;;;5062429;28;20400;-48
2022/10/18 07:08:15;;;;;;;6.63;2.08;;;;;;;;;;5074553;28;20060;-49
2022/10/18 07:10:45;;;;;;;5.90;1.70;;;;;;;;;;5067263;28;20056;-49
2022/10/18 07:13:13;;;;;;;6.28;2.47;;;;;;;;;;5069826;28;20409;-49
2022/10/18 07:15:40;;;;;;;7.03;2.10;;;;;;;;;;5071296;28;20060;-47
2022/10/18 07:18:10;;;;;;;4.80;1.48;;;;;;;;;;5071935;28;20048;-49
2022/10/18 07:20:37;;;;;;;8.98;1.80;;;;;;;;;;5069866;28;20044;-48
2022/10/18 07:23:10;;;;;;;21.85;2.85;;;;;;;;;;5071912;28;20044;-47
2022/10/18 07:25:40;;;;;;;12.07;2.65;;;;;;;;;;5062038;28;20124;-47
2022/10/18 07:28:07;;;;;;;10.40;2.35;;;;;;;;;;5071189;28;20044;-51
2022/10/18 07:30:35;;;;;;;18.83;2.53;;;;;;;;;;5072517;28;20059;-52
2022/10/18 07:33:03;;;;;;;15.27;2.70;;;;;;;;;;5064876;28;20053;-47
2022/10/18 07:35:30;;;;;;;17.88;2.30;;;;;;;;;;5064788;28;20053;-47
2022/10/18 07:37:59;;;;;;;16.85;2.10;;;;;;;;;;5058547;28;20052;-47
2022/10/18 07:40:29;;;;;;;8.60;1.85;;;;;;;;;;5072495;28;20632;-47
2022/10/18 07:42:59;;;;;;;11.23;1.80;;;;;;;;;;5075737;28;20041;-48
2022/10/18 07:45:30;;;;;;;6.85;1.80;;;;;;;;;;5071126;28;20048;-48
2022/10/18 07:47:59;;;;;;;8.43;1.65;;;;;;;;;;5070553;28;20394;-50
2022/10/18 07:50:29;;;;;;;6.68;1.60;;;;;;;;;;5075253;28;20389;-48
2022/10/18 07:52:59;;;;;;;8.68;2.10;;;;;;;;;;5071549;28;20044;-46
2022/10/18 07:55:38;;;;;;;5.25;1.67;;;;;;;;;;5075304;28;20056;-47
2022/10/18 07:58:08;;;;;;;10.95;2.90;;;;;;;;;;5074335;28;20120;-48
2022/10/18 08:00:35;;;;;;;11.75;3.05;;;;;;;;;;5075610;28;20048;-47
2022/10/18 08:03:04;;;;;;;7.05;1.75;;;;;;;;;;5072691;28;20048;-47
2022/10/18 08:05:34;;;;;;;9.55;2.05;;;;;;;;;;5075533;28;20050;-53
2022/10/18 08:08:03;;;;;;;7.13;2.08;;;;;;;;;;5070271;28;20041;-48
2022/10/18 08:10:34;;;;;;;7.57;1.60;;;;;;;;;;5065254;28;20335;-46
2022/10/18 08:13:02;;;;;;;7.82;1.67;;;;;;;;;;5058129;28;20059;-46
2022/10/18 08:15:29;;;;;;;4.68;1.73;;;;;;;;;;5070704;28;20664;-48
2022/10/18 08:17:56;;;;;;;4.22;1.70;;;;;;;;;;5074961;28;20458;-47
2022/10/18 08:20:24;;;;;;;6.95;2.42;;;;;;;;;;5064468;28;20052;-46
2022/10/18 08:22:54;;;;;;;7.72;2.30;;;;;;;;;;5069564;28;20049;-48
2022/10/18 08:25:24;;;;;;;4.93;2.03;;;;;;;;;;5061989;28;20445;-47
2022/10/18 08:28:00;;;;;;;7.95;2.00;;;;;;;;;;5068448;28;20056;-49
2022/10/18 08:30:27;;;;;;;5.65;1.50;;;;;;;;;;5071203;28;20144;-50
2022/10/18 08:33:08;;;;;;;9.07;1.73;;;;;;;;;;5063077;28;20069;-49
2022/10/18 08:35:38;;;;;;;5.03;1.80;;;;;;;;;;5068146;28;20048;-50
2022/10/18 08:38:10;;;;;;;6.43;1.45;;;;;;;;;;5067836;28;20457;-46
2022/10/18 08:40:42;;;;;;;4.68;1.23;;;;;;;;;;5072416;28;20057;-48
2022/10/18 08:43:23;;;;;;;8.05;1.75;;;;;;;;;;5074209;28;20389;-48
2022/10/18 08:46:00;;;;;;;5.30;1.38;;;;;;;;;;5068486;28;20059;-48
2022/10/18 08:48:32;;;;;;;3.90;1.80;;;;;;;;;;5063836;28;20068;-47
2022/10/18 08:51:02;;;;;;;3.45;1.38;;;;;;;;;;5072573;28;20049;-48
2022/10/18 08:53:33;;;;;;;5.05;1.73;;;;;;;;;;5072006;28;20040;-49
2022/10/18 08:56:13;;;;;;;7.63;1.65;;;;;;;;;;5073707;28;20048;-48
2022/10/18 08:58:43;;;;;;;10.15;2.40;;;;;;;;;;5066819;28;20049;-49
2022/10/18 09:01:21;;;;;;;7.95;1.80;;;;;;;;;;5060151;28;20106;-52
2022/10/18 09:04:03;;;;;;;5.55;1.60;;;;;;;;;;5062119;28;20049;-49
2022/10/18 09:06:37;;;;;;;6.03;2.00;;;;;;;;;;5068515;28;20045;-45
2022/10/18 09:09:22;;;;;;;7.90;1.73;;;;;;;;;;5071931;28;20437;-48
2022/10/18 09:12:05;;;;;;;4.63;1.90;;;;;;;;;;5062401;28;20478;-47
2022/10/18 09:15:05;;;;;;;5.68;1.77;;;;;;;;;;5072537;28;20044;-49
2022/10/18 09:17:46;;;;;;;11.18;1.80;;;;;;;;;;5066452;28;20052;-48
2022/10/18 09:20:24;;;;;;;6.35;1.40;;;;;;;;;;5073315;28;20048;-48
2022/10/18 09:22:59;;;;;;;8.68;1.48;;;;;;;;;;5069914;28;20081;-48
2022/10/18 09:25:35;;;;;;;7.90;1.73;;;;;;;;;;5060833;28;20052;-47
2022/10/18 09:28:13;;;;;;;6.15;1.65;;;;;;;;;;5063373;28;20492;-48
2022/10/18 09:30:45;;;;;;;7.32;1.77;;;;;;;;;;5071606;28;20053;-48
2022/10/18 09:33:27;;;;;;;5.43;1.42;;;;;;;;;;5076369;28;20044;-48
2022/10/18 09:36:04;;;;;;;7.35;1.30;;;;;;;;;;5066484;28;20403;-49
2022/10/18 09:38:36;;;;;;;6.80;1.60;;;;;;;;;;5071365;28;20044;-50
2022/10/18 09:41:07;;;;;;;6.05;1.13;;;;;;;;;;5066521;28;20358;-48
2022/10/18 09:43:49;;;;;;;7.88;1.00;;;;;;;;;;5075238;28;20052;-49
2022/10/18 09:46:20;;;;;;;6.85;1.50;;;;;;;;;;5074029;28;20456;-47
2022/10/18 09:48:51;;;;;;;5.43;1.10;;;;;;;;;;5064836;28;20068;-49
2022/10/18 09:51:27;;;;;;;5.57;1.15;;;;;;;;;;5068115;28;20347;-48
2022/10/18 09:54:18;;;;;;;3.72;1.13;;;;;;;;;;5066586;28;20474;-47
2022/10/18 09:56:55;;;;;;;5.22;1.23;;;;;;;;;;5059182;28;20056;-48
2022/10/18 09:59:35;;;;;;;3.78;1.10;;;;;;;;;;5065324;28;20559;-51
2022/10/18 10:02:20;;;;;;;3.08;1.02;;;;;;;;;;5059184;28;20068;-50
2022/10/18 10:04:48;;;;;;;5.57;1.00;;;;;;;;;;5064780;28;20475;-47
2022/10/18 10:07:25;;;;;;;9.75;1.33;;;;;;;;;;5062339;28;20056;-48
2022/10/18 10:09:56;;;;;;;6.00;1.27;;;;;;;;;;5065693;28;20056;-48
2022/10/18 10:12:29;;;;;;;4.13;1.23;;;;;;;;;;5060669;28;20048;-48
2022/10/18 10:15:08;;;;;;;7.93;1.27;;;;;;;;;;5068726;28;20059;-48
2022/10/18 10:17:43;;;;;;;8.32;1.50;;;;;;;;;;5062454;28;20526;-49
2022/10/18 10:20:17;;;;;;;5.85;0.85;;;;;;;;;;5060386;28;20056;-48
2022/10/18 10:22:46;;;;;;;9.98;1.42;;;;;;;;;;5065134;28;20465;-49
2022/10/18 10:25:22;;;;;;;4.40;1.30;;;;;;;;;;5055065;28;20140;-48
2022/10/18 10:27:49;;;;;;;11.32;1.42;;;;;;;;;;5063377;28;20131;-49
2022/10/18 10:30:23;;;;;;;5.28;1.08;;;;;;;;;;5068549;28;20056;-49
2022/10/18 10:32:59;;;;;;;5.90;1.33;;;;;;;;;;5060780;28;20049;-48
2022/10/18 10:35:33;;;;;;;6.47;1.40;;;;;;;;;;5058993;28;20049;-49
2022/10/18 10:38:04;;;;;;;7.05;1.17;;;;;;;;;;5072317;28;20079;-50
2022/10/18 10:40:33;;;;;;;4.25;1.45;;;;;;;;;;5070686;28;20128;-49
2022/10/18 10:43:04;;;;;;;6.70;1.30;;;;;;;;;;5066805;28;20370;-47
2022/10/18 10:45:57;;;;;;;10.13;1.65;;;;;;;;;;5059945;28;20048;-47
2022/10/18 10:48:32;;;;;;;4.97;0.93;;;;;;;;;;5063520;28;20048;-46
2022/10/18 10:51:04;;;;;;;7.63;1.58;;;;;;;;;;5063769;28;20397;-47
2022/10/18 10:53:45;;;;;;;7.07;1.20;;;;;;;;;;5074253;28;20051;-46
2022/10/18 10:56:18;;;;;;;12.00;2.22;;;;;;;;;;5076047;28;20487;-48
2022/10/18 10:58:48;;;;;;;3.22;0.93;;;;;;;;;;5068778;28;20060;-47
2022/10/18 11:01:27;;;;;;;7.05;1.13;;;;;;;;;;5056365;28;20058;-47
2022/10/18 11:04:26;;;;;;;11.68;1.90;;;;;;;;;;5071731;28;20049;-46
2022/10/18 11:07:17;;;;;;;13.40;1.67;;;;;;;;;;5066207;28;20060;-47
2022/10/18 11:09:50;;;;;;;8.82;1.42;;;;;;;;;;5064784;28;20049;-47
2022/10/18 11:12:23;;;;;;;5.78;1.20;;;;;;;;;;5064716;28;20389;-47
2022/10/18 11:14:55;;;;;;;5.65;1.20;;;;;;;;;;5068005;28;20037;-48
2022/10/18 11:17:29;;;;;;;13.38;1.77;;;;;;;;;;5070771;28;20055;-48
2022/10/18 11:20:17;;;;;;;6.88;1.20;;;;;;;;;;5066957;28;20044;-46
2022/10/18 11:23:01;;;;;;;9.52;1.60;;;;;;;;;;5069200;28;20099;-46
2022/10/18 11:26:00;;;;;;;11.27;1.92;;;;;;;;;;5065867;28;20465;-48
2022/10/18 11:28:35;;;;;;;4.30;0.80;;;;;;;;;;5069384;28;20501;-47
2022/10/18 11:31:17;;;;;;;7.97;1.45;;;;;;;;;;5075790;28;20391;-46
2022/10/18 11:34:11;;;;;;;9.43;1.35;;;;;;;;;;5071214;28;20048;-47
2022/10/18 11:37:09;;;;;;;3.75;0.90;;;;;;;;;;5070245;28;20864;-49
2022/10/18 11:39:57;;;;;;;10.05;1.35;;;;;;;;;;5068289;28;20121;-47
2022/10/18 11:42:29;;;;;;;12.70;1.42;;;;;;;;;;5070453;28;20411;-49
2022/10/18 11:45:07;;;;;;;2.50;0.90;;;;;;;;;;5061524;28;20045;-47
2022/10/18 11:47:42;;;;;;;4.07;1.30;;;;;;;;;;5067453;28;20040;-47
2022/10/18 11:50:11;;;;;;;;;;;;;;;;;;5068367;28;20083;-47
2022/10/18 11:52:50;;;;;;;10.65;2.13;;;;;;;;;;5067571;28;19920;-48
2022/10/18 11:55:31;;;;;;;11.27;1.65;;;;;;;;;;5065922;28;20044;-48
2022/10/18 11:58:03;;;;;;;5.22;1.08;;;;;;;;;;5068313;28;20052;-50
2022/10/18 12:00:40;;;;;;;17.88;2.25;;;;;;;;;;5074619;28;20051;-49
2022/10/18 12:03:17;;;;;;;10.82;1.30;;;;;;;;;;5069193;28;20056;-48
2022/10/18 12:05:54;;;;;;;6.30;0.90;;;;;;;;;;5070462;28;20052;-48
2022/10/18 12:08:30;;;;;;;9.57;1.85;;;;;;;;;;5067011;28;20782;-47
2022/10/18 12:11:04;;;;;;;7.22;1.17;;;;;;;;;;5074445;28;20052;-51
2022/10/18 12:13:37;;;;;;;5.55;1.23;;;;;;;;;;5075036;28;20466;-46
2022/10/18 12:16:06;;;;;;;3.45;0.85;;;;;;;;;;5075764;28;20085;-47
2022/10/18 12:18:35;;;;;;;8.77;1.40;;;;;;;;;;5069481;28;20052;-47
2022/10/18 12:21:04;;;;;;;3.15;1.05;;;;;;;;;;5077792;28;20059;-47
2022/10/18 12:23:39;;;;;;;5.25;1.02;;;;;;;;;;5065612;28;20354;-48
2022/10/18 12:26:12;;;;;;;5.03;1.20;;;;;;;;;;5060103;28;20056;-48
2022/10/18 12:28:46;;;;;;;4.07;1.15;;;;;;;;;;5065981;28;20064;-47
2022/10/18 12:31:21;;;;;;;4.97;1.00;;;;;;;;;;5073273;28;20040;-46
2022/10/18 12:33:51;;;;;;;3.43;0.80;;;;;;;;;;5064428;28;20052;-48
2022/10/18 12:36:33;;;;;;;2.97;1.13;;;;;;;;;;5072869;28;20087;-47
2022/10/18 12:39:09;;;;;;;6.88;1.20;;;;;;;;;;5067217;28;20056;-48
2022/10/18 12:41:38;;;;;;;4.05;1.13;;;;;;;;;;5067261;28;20053;-49
2022/10/18 12:44:07;;;;;;;10.32;1.17;;;;;;;;;;5072732;28;20452;-48
2022/10/18 12:46:53;;;;;;;14.40;1.83;;;;;;;;;;5069957;28;20058;-48
2022/10/18 12:49:20;;;;;;;;;;;;;;;;;;5072958;28;20056;-49
2022/10/18 12:51:51;;;;;;;5.78;1.15;;;;;;;;;;5065433;28;20265;-48
2022/10/18 12:54:33;;;;;;;12.55;1.80;;;;;;;;;;5057504;28;20883;-50
2022/10/18 12:57:04;;;;;;;6.45;1.60;;;;;;;;;;5060931;28;20045;-51
2022/10/18 12:59:52;;;;;;;3.28;1.40;;;;;;;;;;5064399;28;20143;-48
2022/10/18 13:02:33;;;;;;;2.10;1.15;;;;;;;;;;5059498;28;20465;-49
2022/10/18 13:05:01;;;;;;;13.65;1.67;;;;;;;;;;5071170;28;20055;-49
2022/10/18 13:07:43;;;;;;;13.25;1.83;;;;;;;;;;5075202;28;20374;-48
2022/10/18 13:10:40;;;;;;;11.52;1.95;;;;;;;;;;5074616;28;20059;-48
2022/10/18 13:13:28;;;;;;;5.25;1.50;;;;;;;;;;4993112;28;20491;-52
2022/10/18 13:16:07;;;;;;;3.65;1.02;;;;;;;;;;4992339;28;20094;-48
2022/10/18 13:18:43;;;;;;;10.38;1.73;;;;;;;;;;4988840;28;20098;-49
2022/10/18 13:21:16;;;;;;;15.05;2.00;;;;;;;;;;4992473;28;20463;-48
2022/10/18 13:23:52;;;;;;;13.63;2.50;;;;;;;;;;4983773;28;20058;-48
2022/10/18 13:26:26;;;;;;;9.48;2.05;;;;;;;;;;4984151;28;20050;-47
2022/10/18 13:29:01;;;;;;;12.30;2.25;;;;;;;;;;4992469;28;20460;-48
2022/10/18 13:31:40;;;;;;;;;;;;;;;;;;4985310;28;20058;-47
2022/10/18 13:34:26;;;;;;;12.52;2.70;;;;;;;;;;5017751;28;19924;-49
2022/10/18 13:37:01;;;;;;;9.98;1.65;;;;;;;;;;5066155;28;20049;-47
2022/10/18 13:39:29;;;;;;;10.27;1.73;;;;;;;;;;5072502;28;20431;-48
2022/10/18 13:42:18;;;;;;;17.80;2.17;;;;;;;;;;5070114;28;20045;-48
2022/10/18 13:44:49;;;;;;;16.65;2.53;;;;;;;;;;5068402;28;20060;-46
2022/10/18 13:47:34;;;;;;;11.68;1.98;;;;;;;;;;5069452;28;20052;-47
2022/10/18 13:50:19;;;;;;;6.63;1.88;;;;;;;;;;5054606;28;20061;-47
2022/10/18 13:53:05;;;;;;;5.85;1.60;;;;;;;;;;5073043;28;20511;-48
2022/10/18 13:55:54;;;;;;;10.82;2.65;;;;;;;;;;5073676;28;20096;-46
2022/10/18 13:58:24;;;;;;;6.35;1.65;;;;;;;;;;5060133;28;20071;-47
2022/10/18 14:01:14;;;;;;;9.38;1.90;;;;;;;;;;5063972;28;20052;-46
2022/10/18 14:03:53;;;;;;;8.10;1.73;;;;;;;;;;5059977;28;20048;-48
2022/10/18 14:06:30;;;;;;;11.07;2.85;;;;;;;;;;5062916;28;20049;-46
2022/10/18 14:09:01;;;;;;;7.05;2.58;;;;;;;;;;5057995;28;20454;-46
2022/10/18 14:11:33;;;;;;;23.30;3.38;;;;;;;;;;5065677;28;20055;-48
2022/10/18 14:14:04;;;;;;;12.13;2.88;;;;;;;;;;5073057;28;20123;-48
2022/10/18 14:16:39;;;;;;;10.57;2.15;;;;;;;;;;5072839;28;20055;-51
2022/10/18 14:19:17;;;;;;;14.52;2.28;;;;;;;;;;5065574;28;20079;-48
2022/10/18 14:21:51;;;;;;;8.35;2.08;;;;;;;;;;5071566;28;20083;-47
2022/10/18 14:24:21;;;;;;;8.97;1.63;;;;;;;;;;5054030;28;20049;-51
2022/10/18 14:27:18;;;;;;;10.40;1.63;;;;;;;;;;5063263;28;20064;-47
2022/10/18 14:29:47;;;;;;;4.35;1.50;;;;;;;;;;5059438;28;20048;-47
2022/10/18 14:32:25;;;;;;;5.70;1.25;;;;;;;;;;5068513;28;20369;-49
2022/10/18 14:34:55;;;;;;;7.03;1.98;;;;;;;;;;5069180;28;20071;-45
2022/10/18 14:37:26;;;;;;;8.63;1.88;;;;;;;;;;5068906;28;20048;-47
2022/10/18 14:39:54;;;;;;;5.95;1.67;;;;;;;;;;5063058;28;20090;-47
2022/10/18 14:42:23;;;;;;;10.40;1.83;;;;;;;;;;5072103;28;20484;-48
2022/10/18 14:44:54;;;;;;;20.58;2.80;;;;;;;;;;5069158;28;20055;-46
2022/10/18 14:47:34;;;;;;;9.70;1.83;;;;;;;;;;5052500;28;20458;-47
2022/10/18 14:50:05;;;;;;;13.52;2.78;;;;;;;;;;5060355;28;20064;-47
2022/10/18 14:52:32;;;;;;;13.45;2.67;;;;;;;;;;5055344;28;20056;-47
2022/10/18 14:55:14;;;;;;;9.70;2.60;;;;;;;;;;5053414;28;20048;-49
2022/10/18 14:57:44;;;;;;;11.52;1.92;;;;;;;;;;5063250;28;20045;-48
2022/10/18 15:00:19;;;;;;;8.90;2.20;;;;;;;;;;5059082;28;20048;-48
2022/10/18 15:02:50;;;;;;;7.35;1.90;;;;;;;;;;5058281;28;20057;-48
2022/10/18 15:05:23;;;;;;;4.93;1.67;;;;;;;;;;5068013;28;20045;-47
2022/10/18 15:07:53;;;;;;;6.68;2.10;;;;;;;;;;5063257;28;20056;-51
2022/10/18 15:10:23;;;;;;;8.70;2.38;;;;;;;;;;5064668;28;20542;-48
2022/10/18 15:12:53;;;;;;;4.85;1.35;;;;;;;;;;5078796;28;20056;-46
2022/10/18 15:15:26;;;;;;;5.20;1.55;;;;;;;;;;5056718;28;20041;-49
2022/10/18 15:18:04;;;;;;;5.70;2.03;;;;;;;;;;5064065;28;20048;-47
2022/10/18 15:20:41;;;;;;;5.13;1.85;;;;;;;;;;5053153;28;20045;-47